sensor_id;sensor_type;location;lat;lon;timestamp;pressure;altitude;pressure_sealevel;temperature;humidity
79589;BME280;69067;51.930;4.492;2024-02-21T00:00:49;102106.16;;;25.04;37.25
79589;BME280;69067;51.930;4.492;2024-02-21T00:03:15;102092.75;;;25.02;36.71
79589;BME280;69067;51.930;4.492;2024-02-21T00:05:41;102093.97;;;25.00;37.16
79589;BME280;69067;51.930;4.492;2024-02-21T00:08:06;102086.81;;;24.99;37.37
79589;BME280;69067;51.930;4.492;2024-02-21T00:10:32;102081.38;;;24.99;37.29
79589;BME280;69067;51.930;4.492;2024-02-21T00:12:58;102076.59;;;25.01;37.17
79589;BME280;69067;51.930;4.492;2024-02-21T00:15:27;102074.22;;;24.98;37.23
79589;BME280;69067;51.930;4.492;2024-02-21T00:17:53;102067.75;;;24.99;37.36
79589;BME280;69067;51.930;4.492;2024-02-21T00:20:19;102070.28;;;25.00;37.17
79589;BME280;69067;51.930;4.492;2024-02-21T00:22:45;102070.75;;;25.04;36.92
79589;BME280;69067;51.930;4.492;2024-02-21T00:25:11;102085.78;;;25.00;37.42
79589;BME280;69067;51.930;4.492;2024-02-21T00:27:38;102078.38;;;24.94;37.24
79589;BME280;69067;51.930;4.492;2024-02-21T00:30:04;102082.78;;;24.95;37.72
79589;BME280;69067;51.930;4.492;2024-02-21T00:32:31;102078.47;;;25.00;37.07
79589;BME280;69067;51.930;4.492;2024-02-21T00:34:59;102092.94;;;25.01;37.08
79589;BME280;69067;51.930;4.492;2024-02-21T00:37:25;102096.03;;;24.98;37.27
79589;BME280;69067;51.930;4.492;2024-02-21T00:39:50;102100.84;;;24.96;37.50
79589;BME280;69067;51.930;4.492;2024-02-21T00:42:16;102095.84;;;24.99;37.22
79589;BME280;69067;51.930;4.492;2024-02-21T00:44:42;102089.53;;;24.99;37.24
79589;BME280;69067;51.930;4.492;2024-02-21T00:47:07;102092.28;;;24.99;37.25
79589;BME280;69067;51.930;4.492;2024-02-21T00:49:33;102093.13;;;24.99;37.16
79589;BME280;69067;51.930;4.492;2024-02-21T00:51:58;102086.16;;;24.97;37.21
79589;BME280;69067;51.930;4.492;2024-02-21T00:54:24;102067.91;;;24.97;37.38
79589;BME280;69067;51.930;4.492;2024-02-21T00:56:50;102053.44;;;24.97;36.99
79589;BME280;69067;51.930;4.492;2024-02-21T00:59:16;102053.44;;;24.97;37.25
79589;BME280;69067;51.930;4.492;2024-02-21T01:01:41;102043.41;;;24.97;37.27
79589;BME280;69067;51.930;4.492;2024-02-21T01:04:09;102041.91;;;24.95;37.47
79589;BME280;69067;51.930;4.492;2024-02-21T01:06:35;102056.84;;;24.99;37.52
79589;BME280;69067;51.930;4.492;2024-02-21T01:09:00;102046.34;;;24.96;37.43
79589;BME280;69067;51.930;4.492;2024-02-21T01:11:26;102046.34;;;24.96;37.46
79589;BME280;69067;51.930;4.492;2024-02-21T01:13:53;102039.19;;;24.95;37.02
79589;BME280;69067;51.930;4.492;2024-02-21T01:16:20;102036.38;;;25.03;36.98
79589;BME280;69067;51.930;4.492;2024-02-21T01:18:46;102039.66;;;24.98;37.54
79589;BME280;69067;51.930;4.492;2024-02-21T01:21:12;102046.78;;;24.99;37.14
79589;BME280;69067;51.930;4.492;2024-02-21T01:23:37;102047.63;;;25.00;37.72
79589;BME280;69067;51.930;4.492;2024-02-21T01:26:04;102035.63;;;24.94;37.41
79589;BME280;69067;51.930;4.492;2024-02-21T01:28:30;102038.63;;;24.99;37.78
79589;BME280;69067;51.930;4.492;2024-02-21T01:30:58;102037.94;;;24.97;37.48
79589;BME280;69067;51.930;4.492;2024-02-21T01:33:24;102032.59;;;25.04;37.14
79589;BME280;69067;51.930;4.492;2024-02-21T01:35:49;102026.19;;;24.97;37.69
79589;BME280;69067;51.930;4.492;2024-02-21T01:38:15;102022.00;;;24.94;37.74
79589;BME280;69067;51.930;4.492;2024-02-21T01:40:41;102023.28;;;24.98;37.17
79589;BME280;69067;51.930;4.492;2024-02-21T01:43:19;102021.22;;;25.00;37.59
79589;BME280;69067;51.930;4.492;2024-02-21T01:45:49;102028.75;;;24.98;37.50
79589;BME280;69067;51.930;4.492;2024-02-21T01:48:20;102026.88;;;24.99;37.53
79589;BME280;69067;51.930;4.492;2024-02-21T01:50:49;102011.94;;;24.95;37.58
79589;BME280;69067;51.930;4.492;2024-02-21T01:53:21;102004.41;;;24.97;37.52
79589;BME280;69067;51.930;4.492;2024-02-21T01:55:48;102001.13;;;25.01;37.48
79589;BME280;69067;51.930;4.492;2024-02-21T01:58:15;102000.75;;;24.90;37.31
79589;BME280;69067;51.930;4.492;2024-02-21T02:00:47;102007.88;;;24.91;37.53
79589;BME280;69067;51.930;4.492;2024-02-21T02:03:14;102008.19;;;24.96;37.34
79589;BME280;69067;51.930;4.492;2024-02-21T02:05:44;102008.72;;;24.91;37.59
79589;BME280;69067;51.930;4.492;2024-02-21T02:08:13;102000.19;;;24.94;37.46
79589;BME280;69067;51.930;4.492;2024-02-21T02:10:40;101993.91;;;24.94;37.76
79589;BME280;69067;51.930;4.492;2024-02-21T02:13:06;101987.13;;;24.90;37.50
79589;BME280;69067;51.930;4.492;2024-02-21T02:18:09;101993.97;;;25.00;37.55
79589;BME280;69067;51.930;4.492;2024-02-21T02:20:36;101983.66;;;24.96;37.94
79589;BME280;69067;51.930;4.492;2024-02-21T02:23:09;101990.16;;;24.95;37.37
79589;BME280;69067;51.930;4.492;2024-02-21T02:25:37;101985.63;;;25.02;37.45
79589;BME280;69067;51.930;4.492;2024-02-21T02:28:05;101986.00;;;24.99;37.70
79589;BME280;69067;51.930;4.492;2024-02-21T02:30:37;101986.75;;;24.93;37.92
79589;BME280;69067;51.930;4.492;2024-02-21T02:33:04;101984.22;;;24.91;37.74
79589;BME280;69067;51.930;4.492;2024-02-21T02:35:30;101988.44;;;24.94;37.91
79589;BME280;69067;51.930;4.492;2024-02-21T02:37:57;101972.47;;;24.91;38.02
79589;BME280;69067;51.930;4.492;2024-02-21T02:40:23;101971.06;;;24.95;37.83
79589;BME280;69067;51.930;4.492;2024-02-21T02:42:49;101958.47;;;24.94;37.63
79589;BME280;69067;51.930;4.492;2024-02-21T02:45:17;101967.09;;;24.97;37.47
79589;BME280;69067;51.930;4.492;2024-02-21T02:47:47;101947.84;;;24.99;37.70
79589;BME280;69067;51.930;4.492;2024-02-21T02:50:13;101951.16;;;24.94;37.80
79589;BME280;69067;51.930;4.492;2024-02-21T02:52:39;101949.91;;;24.97;37.69
79589;BME280;69067;51.930;4.492;2024-02-21T02:55:05;101940.13;;;24.88;37.78
79589;BME280;69067;51.930;4.492;2024-02-21T02:57:31;101939.75;;;24.91;37.56
79589;BME280;69067;51.930;4.492;2024-02-21T02:59:57;101937.03;;;24.91;37.64
79589;BME280;69067;51.930;4.492;2024-02-21T03:02:23;101925.97;;;24.92;37.46
79589;BME280;69067;51.930;4.492;2024-02-21T03:04:49;101926.81;;;24.93;37.87
79589;BME280;69067;51.930;4.492;2024-02-21T03:07:15;101923.56;;;25.04;37.38
79589;BME280;69067;51.930;4.492;2024-02-21T03:09:42;101912.50;;;24.91;37.59
79589;BME280;69067;51.930;4.492;2024-02-21T03:12:10;101910.47;;;24.93;37.58
79589;BME280;69067;51.930;4.492;2024-02-21T03:14:36;101918.44;;;24.94;37.45
79589;BME280;69067;51.930;4.492;2024-02-21T03:17:02;101913.84;;;24.95;37.31
79589;BME280;69067;51.930;4.492;2024-02-21T03:19:29;101898.72;;;24.92;37.73
79589;BME280;69067;51.930;4.492;2024-02-21T03:21:55;101895.50;;;24.89;37.61
79589;BME280;69067;51.930;4.492;2024-02-21T03:24:21;101900.47;;;25.00;37.73
79589;BME280;69067;51.930;4.492;2024-02-21T03:26:47;101892.41;;;24.92;37.58
79589;BME280;69067;51.930;4.492;2024-02-21T03:29:15;101898.03;;;24.90;37.80
79589;BME280;69067;51.930;4.492;2024-02-21T03:31:42;101897.00;;;24.91;37.66
79589;BME280;69067;51.930;4.492;2024-02-21T03:34:10;101880.84;;;24.90;37.70
79589;BME280;69067;51.930;4.492;2024-02-21T03:36:36;101884.78;;;24.87;37.54
79589;BME280;69067;51.930;4.492;2024-02-21T03:39:01;101885.94;;;24.93;37.45
79589;BME280;69067;51.930;4.492;2024-02-21T03:41:27;101883.41;;;24.91;37.87
79589;BME280;69067;51.930;4.492;2024-02-21T03:43:54;101889.03;;;24.90;37.39
79589;BME280;69067;51.930;4.492;2024-02-21T03:46:20;101880.28;;;24.94;37.71
79589;BME280;69067;51.930;4.492;2024-02-21T03:48:45;101887.34;;;24.89;38.13
79589;BME280;69067;51.930;4.492;2024-02-21T03:51:11;101882.63;;;24.83;38.20
79589;BME280;69067;51.930;4.492;2024-02-21T03:53:37;101884.97;;;24.86;38.45
79589;BME280;69067;51.930;4.492;2024-02-21T03:56:03;101877.09;;;24.91;37.96
79589;BME280;69067;51.930;4.492;2024-02-21T03:58:30;101857.06;;;24.84;38.18
79589;BME280;69067;51.930;4.492;2024-02-21T04:00:56;101866.75;;;24.86;37.28
79589;BME280;69067;51.930;4.492;2024-02-21T04:03:22;101865.72;;;24.87;37.81
79589;BME280;69067;51.930;4.492;2024-02-21T04:05:48;101862.34;;;24.85;38.28
79589;BME280;69067;51.930;4.492;2024-02-21T04:08:13;101867.91;;;24.92;37.88
79589;BME280;69067;51.930;4.492;2024-02-21T04:10:39;101873.22;;;24.85;37.60
79589;BME280;69067;51.930;4.492;2024-02-21T04:13:06;101887.25;;;24.82;38.13
79589;BME280;69067;51.930;4.492;2024-02-21T04:15:33;101876.13;;;24.84;37.92
79589;BME280;69067;51.930;4.492;2024-02-21T04:17:59;101867.22;;;24.90;37.62
79589;BME280;69067;51.930;4.492;2024-02-21T04:20:24;101871.34;;;24.86;37.80
79589;BME280;69067;51.930;4.492;2024-02-21T04:22:50;101873.41;;;24.84;37.63
79589;BME280;69067;51.930;4.492;2024-02-21T04:25:16;101864.88;;;24.87;37.92
79589;BME280;69067;51.930;4.492;2024-02-21T04:27:42;101862.91;;;24.81;38.19
79589;BME280;69067;51.930;4.492;2024-02-21T04:30:08;101852.88;;;24.81;38.02
79589;BME280;69067;51.930;4.492;2024-02-21T04:32:35;101853.06;;;24.80;38.08
79589;BME280;69067;51.930;4.492;2024-02-21T04:35:01;101841.97;;;24.81;37.58
79589;BME280;69067;51.930;4.492;2024-02-21T04:37:26;101849.56;;;24.86;37.64
79589;BME280;69067;51.930;4.492;2024-02-21T04:39:52;101844.22;;;24.78;38.06
79589;BME280;69067;51.930;4.492;2024-02-21T04:42:18;101834.66;;;24.82;37.95
79589;BME280;69067;51.930;4.492;2024-02-21T04:44:44;101831.06;;;24.81;37.99
79589;BME280;69067;51.930;4.492;2024-02-21T04:47:10;101829.09;;;24.90;37.68
79589;BME280;69067;51.930;4.492;2024-02-21T04:49:35;101825.22;;;24.84;37.46
79589;BME280;69067;51.930;4.492;2024-02-21T04:52:01;101835.69;;;24.81;37.63
79589;BME280;69067;51.930;4.492;2024-02-21T04:54:27;101837.44;;;24.88;37.81
79589;BME280;69067;51.930;4.492;2024-02-21T04:56:53;101824.47;;;24.90;38.08
79589;BME280;69067;51.930;4.492;2024-02-21T04:59:19;101814.81;;;24.88;38.22
79589;BME280;69067;51.930;4.492;2024-02-21T05:01:44;101808.44;;;24.81;38.00
79589;BME280;69067;51.930;4.492;2024-02-21T05:04:10;101812.19;;;24.80;37.38
79589;BME280;69067;51.930;4.492;2024-02-21T05:06:39;101803.34;;;24.78;37.95
79589;BME280;69067;51.930;4.492;2024-02-21T05:09:06;101796.22;;;24.77;38.01
79589;BME280;69067;51.930;4.492;2024-02-21T05:11:32;101784.34;;;24.84;37.61
79589;BME280;69067;51.930;4.492;2024-02-21T05:13:58;101788.53;;;24.80;37.78
79589;BME280;69067;51.930;4.492;2024-02-21T05:16:23;101782.78;;;24.90;37.38
79589;BME280;69067;51.930;4.492;2024-02-21T05:18:49;101784.84;;;24.88;37.86
79589;BME280;69067;51.930;4.492;2024-02-21T05:21:15;101776.72;;;24.73;37.99
79589;BME280;69067;51.930;4.492;2024-02-21T05:23:40;101769.38;;;24.73;38.23
79589;BME280;69067;51.930;4.492;2024-02-21T05:26:06;101760.81;;;24.77;38.24
79589;BME280;69067;51.930;4.492;2024-02-21T05:28:32;101761.84;;;24.76;37.68
79589;BME280;69067;51.930;4.492;2024-02-21T05:30:58;101756.41;;;24.76;38.25
79589;BME280;69067;51.930;4.492;2024-02-21T05:33:24;101750.31;;;24.73;37.92
79589;BME280;69067;51.930;4.492;2024-02-21T05:35:50;101750.94;;;24.76;37.92
79589;BME280;69067;51.930;4.492;2024-02-21T05:38:17;101742.53;;;24.70;37.96
79589;BME280;69067;51.930;4.492;2024-02-21T05:40:44;101738.41;;;24.75;38.31
79589;BME280;69067;51.930;4.492;2024-02-21T05:43:10;101737.41;;;24.82;37.79
79589;BME280;69067;51.930;4.492;2024-02-21T05:45:36;101731.63;;;24.70;38.26
79589;BME280;69067;51.930;4.492;2024-02-21T05:48:03;101740.34;;;24.81;38.73
79589;BME280;69067;51.930;4.492;2024-02-21T05:50:29;101735.13;;;24.86;37.65
79589;BME280;69067;51.930;4.492;2024-02-21T05:52:56;101731.31;;;24.80;38.29
79589;BME280;69067;51.930;4.492;2024-02-21T05:55:22;101719.56;;;24.80;38.41
79589;BME280;69067;51.930;4.492;2024-02-21T05:57:48;101723.34;;;24.79;38.02
79589;BME280;69067;51.930;4.492;2024-02-21T06:00:14;101713.88;;;24.75;38.21
79589;BME280;69067;51.930;4.492;2024-02-21T06:02:41;101710.94;;;24.76;38.16
79589;BME280;69067;51.930;4.492;2024-02-21T06:05:07;101723.09;;;24.73;38.36
79589;BME280;69067;51.930;4.492;2024-02-21T06:07:34;101710.69;;;24.71;38.26
79589;BME280;69067;51.930;4.492;2024-02-21T06:10:02;101704.38;;;24.70;38.27
79589;BME280;69067;51.930;4.492;2024-02-21T06:12:28;101714.13;;;24.80;37.42
79589;BME280;69067;51.930;4.492;2024-02-21T06:14:54;101719.31;;;24.75;37.96
79589;BME280;69067;51.930;4.492;2024-02-21T06:17:20;101719.31;;;24.75;38.29
79589;BME280;69067;51.930;4.492;2024-02-21T06:19:46;101719.88;;;24.70;37.79
79589;BME280;69067;51.930;4.492;2024-02-21T06:22:12;101721.75;;;24.69;38.03
79589;BME280;69067;51.930;4.492;2024-02-21T06:24:38;101728.06;;;24.70;38.53
79589;BME280;69067;51.930;4.492;2024-02-21T06:27:04;101724.31;;;24.71;38.55
79589;BME280;69067;51.930;4.492;2024-02-21T06:29:33;101731.25;;;24.73;37.88
79589;BME280;69067;51.930;4.492;2024-02-21T06:31:59;101723.25;;;24.72;37.98
79589;BME280;69067;51.930;4.492;2024-02-21T06:34:25;101720.91;;;24.69;38.33
79589;BME280;69067;51.930;4.492;2024-02-21T06:36:52;101718.47;;;24.74;37.91
79589;BME280;69067;51.930;4.492;2024-02-21T06:39:17;101714.25;;;24.71;38.24
79589;BME280;69067;51.930;4.492;2024-02-21T06:41:43;101704.13;;;24.65;38.12
79589;BME280;69067;51.930;4.492;2024-02-21T06:44:09;101701.66;;;24.70;38.44
79589;BME280;69067;51.930;4.492;2024-02-21T06:46:35;101700.63;;;24.71;38.52
79589;BME280;69067;51.930;4.492;2024-02-21T06:49:02;101691.38;;;24.66;39.17
79589;BME280;69067;51.930;4.492;2024-02-21T06:51:31;101690.16;;;24.68;38.41
79589;BME280;69067;51.930;4.492;2024-02-21T06:53:57;101687.63;;;24.67;38.62
79589;BME280;69067;51.930;4.492;2024-02-21T06:56:26;101682.16;;;24.67;38.75
79589;BME280;69067;51.930;4.492;2024-02-21T06:58:55;101695.84;;;24.73;38.74
79589;BME280;69067;51.930;4.492;2024-02-21T07:01:21;101688.56;;;24.81;38.26
79589;BME280;69067;51.930;4.492;2024-02-21T07:03:46;101688.03;;;24.70;38.81
79589;BME280;69067;51.930;4.492;2024-02-21T07:06:13;101681.44;;;24.80;38.70
79589;BME280;69067;51.930;4.492;2024-02-21T07:08:38;101684.69;;;24.68;38.77
79589;BME280;69067;51.930;4.492;2024-02-21T07:11:05;101678.25;;;24.76;38.70
79589;BME280;69067;51.930;4.492;2024-02-21T07:13:31;101679.69;;;24.72;38.63
79589;BME280;69067;51.930;4.492;2024-02-21T07:15:57;101667.03;;;24.86;38.46
79589;BME280;69067;51.930;4.492;2024-02-21T07:18:23;101661.97;;;24.83;38.46
79589;BME280;69067;51.930;4.492;2024-02-21T07:20:51;101664.91;;;24.81;38.77
79589;BME280;69067;51.930;4.492;2024-02-21T07:23:18;101652.13;;;24.82;38.29
79589;BME280;69067;51.930;4.492;2024-02-21T07:25:44;101649.13;;;24.77;38.34
79589;BME280;69067;51.930;4.492;2024-02-21T07:28:10;101648.50;;;24.75;38.70
79589;BME280;69067;51.930;4.492;2024-02-21T07:30:35;101639.25;;;24.76;38.62
79589;BME280;69067;51.930;4.492;2024-02-21T07:33:01;101640.28;;;24.68;38.94
79589;BME280;69067;51.930;4.492;2024-02-21T07:35:27;101635.50;;;24.77;38.57
79589;BME280;69067;51.930;4.492;2024-02-21T07:37:53;101627.34;;;24.77;38.74
79589;BME280;69067;51.930;4.492;2024-02-21T07:40:19;101625.44;;;24.77;38.71
79589;BME280;69067;51.930;4.492;2024-02-21T07:42:45;101639.59;;;24.87;37.94
79589;BME280;69067;51.930;4.492;2024-02-21T07:45:10;101640.16;;;24.83;38.73
79589;BME280;69067;51.930;4.492;2024-02-21T07:47:36;101618.91;;;24.71;38.50
79589;BME280;69067;51.930;4.492;2024-02-21T07:50:03;101619.75;;;24.72;38.37
79589;BME280;69067;51.930;4.492;2024-02-21T07:52:29;101604.91;;;24.75;38.57
79589;BME280;69067;51.930;4.492;2024-02-21T07:54:55;101599.66;;;24.73;38.82
79589;BME280;69067;51.930;4.492;2024-02-21T07:57:21;101590.84;;;24.71;38.98
79589;BME280;69067;51.930;4.492;2024-02-21T07:59:47;101587.97;;;24.79;39.04
79589;BME280;69067;51.930;4.492;2024-02-21T08:02:14;101592.97;;;24.76;38.82
79589;BME280;69067;51.930;4.492;2024-02-21T08:04:40;101590.56;;;24.87;38.60
79589;BME280;69067;51.930;4.492;2024-02-21T08:07:06;101594.31;;;24.86;38.37
79589;BME280;69067;51.930;4.492;2024-02-21T08:09:31;101590.50;;;24.81;39.14
79589;BME280;69067;51.930;4.492;2024-02-21T08:11:57;101588.41;;;24.83;38.68
79589;BME280;69067;51.930;4.492;2024-02-21T08:14:23;101588.03;;;24.86;38.42
79589;BME280;69067;51.930;4.492;2024-02-21T08:16:53;101582.19;;;24.89;38.51
79589;BME280;69067;51.930;4.492;2024-02-21T08:19:20;101576.28;;;24.85;38.65
79589;BME280;69067;51.930;4.492;2024-02-21T08:21:46;101564.53;;;24.85;38.52
79589;BME280;69067;51.930;4.492;2024-02-21T08:24:13;101551.19;;;24.90;38.46
79589;BME280;69067;51.930;4.492;2024-02-21T08:26:44;101558.91;;;24.86;38.49
79589;BME280;69067;51.930;4.492;2024-02-21T08:29:13;101558.72;;;24.88;38.41
79589;BME280;69067;51.930;4.492;2024-02-21T08:31:39;101551.69;;;25.00;38.55
79589;BME280;69067;51.930;4.492;2024-02-21T08:34:04;101554.47;;;24.85;39.38
79589;BME280;69067;51.930;4.492;2024-02-21T08:36:30;101548.06;;;24.93;39.17
79589;BME280;69067;51.930;4.492;2024-02-21T08:38:57;101526.84;;;24.88;38.51
79589;BME280;69067;51.930;4.492;2024-02-21T08:41:26;101544.50;;;24.92;38.56
79589;BME280;69067;51.930;4.492;2024-02-21T08:43:53;101537.56;;;24.90;39.07
79589;BME280;69067;51.930;4.492;2024-02-21T08:46:23;101538.97;;;24.86;38.55
79589;BME280;69067;51.930;4.492;2024-02-21T08:48:50;101529.38;;;24.90;38.38
79589;BME280;69067;51.930;4.492;2024-02-21T08:51:17;101522.91;;;24.91;38.16
79589;BME280;69067;51.930;4.492;2024-02-21T08:53:47;101517.72;;;24.96;38.35
79589;BME280;69067;51.930;4.492;2024-02-21T08:56:13;101516.59;;;24.90;38.44
79589;BME280;69067;51.930;4.492;2024-02-21T08:58:40;101511.81;;;24.92;38.24
79589;BME280;69067;51.930;4.492;2024-02-21T09:01:07;101514.22;;;24.81;38.55
79589;BME280;69067;51.930;4.492;2024-02-21T09:03:39;101519.38;;;24.97;38.43
79589;BME280;69067;51.930;4.492;2024-02-21T09:06:06;101504.03;;;24.89;38.18
79589;BME280;69067;51.930;4.492;2024-02-21T09:08:32;101503.84;;;24.91;37.85
79589;BME280;69067;51.930;4.492;2024-02-21T09:10:59;101492.03;;;24.84;38.12
79589;BME280;69067;51.930;4.492;2024-02-21T09:13:25;101489.94;;;24.86;37.90
79589;BME280;69067;51.930;4.492;2024-02-21T09:15:51;101470.50;;;24.89;37.81
79589;BME280;69067;51.930;4.492;2024-02-21T09:18:16;101466.88;;;24.82;37.95
79589;BME280;69067;51.930;4.492;2024-02-21T09:20:42;101455.25;;;24.94;37.63
79589;BME280;69067;51.930;4.492;2024-02-21T09:23:09;101450.38;;;24.90;38.13
79589;BME280;69067;51.930;4.492;2024-02-21T09:25:35;101445.19;;;24.95;37.81
79589;BME280;69067;51.930;4.492;2024-02-21T09:28:02;101435.97;;;24.96;37.29
79589;BME280;69067;51.930;4.492;2024-02-21T09:30:29;101435.13;;;24.95;37.66
79589;BME280;69067;51.930;4.492;2024-02-21T09:32:55;101433.66;;;24.93;37.71
79589;BME280;69067;51.930;4.492;2024-02-21T09:35:24;101429.47;;;24.97;37.46
79589;BME280;69067;51.930;4.492;2024-02-21T09:37:52;101419.19;;;24.99;37.56
79589;BME280;69067;51.930;4.492;2024-02-21T09:40:18;101414.97;;;24.90;37.47
79589;BME280;69067;51.930;4.492;2024-02-21T09:42:46;101408.97;;;25.07;37.47
79589;BME280;69067;51.930;4.492;2024-02-21T09:45:24;101404.00;;;24.83;37.53
79589;BME280;69067;51.930;4.492;2024-02-21T09:50:57;101386.13;;;25.08;37.16
79589;BME280;69067;51.930;4.492;2024-02-21T09:53:24;101390.25;;;24.91;37.68
79589;BME280;69067;51.930;4.492;2024-02-21T09:55:51;101375.78;;;24.91;37.52
79589;BME280;69067;51.930;4.492;2024-02-21T09:58:18;101381.50;;;25.02;37.30
79589;BME280;69067;51.930;4.492;2024-02-21T10:00:43;101369.75;;;24.95;37.32
79589;BME280;69067;51.930;4.492;2024-02-21T10:03:10;101359.72;;;25.02;37.41
79589;BME280;69067;51.930;4.492;2024-02-21T10:05:36;101363.47;;;25.01;37.22
79589;BME280;69067;51.930;4.492;2024-02-21T10:08:03;101347.50;;;24.92;37.05
79589;BME280;69067;51.930;4.492;2024-02-21T10:10:29;101319.25;;;25.06;37.34
79589;BME280;69067;51.930;4.492;2024-02-21T10:12:56;101303.50;;;24.95;37.27
79589;BME280;69067;51.930;4.492;2024-02-21T10:15:24;101294.91;;;24.91;36.85
79589;BME280;69067;51.930;4.492;2024-02-21T10:17:58;101299.97;;;25.01;36.99
79589;BME280;69067;51.930;4.492;2024-02-21T10:20:25;101302.25;;;24.97;37.13
79589;BME280;69067;51.930;4.492;2024-02-21T10:23:01;101315.03;;;24.97;37.27
79589;BME280;69067;51.930;4.492;2024-02-21T10:25:28;101313.38;;;24.96;36.95
79589;BME280;69067;51.930;4.492;2024-02-21T10:27:55;101320.72;;;25.08;36.63
79589;BME280;69067;51.930;4.492;2024-02-21T10:30:21;101323.66;;;25.14;36.54
79589;BME280;69067;51.930;4.492;2024-02-21T10:32:53;101332.88;;;25.06;37.05
79589;BME280;69067;51.930;4.492;2024-02-21T10:35:32;101332.47;;;25.02;37.08
79589;BME280;69067;51.930;4.492;2024-02-21T10:37:59;101326.19;;;25.08;36.84
79589;BME280;69067;51.930;4.492;2024-02-21T10:40:27;101330.34;;;25.11;36.80
79589;BME280;69067;51.930;4.492;2024-02-21T10:43:00;101320.94;;;25.14;36.54
79589;BME280;69067;51.930;4.492;2024-02-21T10:45:34;101314.00;;;25.11;36.94
79589;BME280;69067;51.930;4.492;2024-02-21T10:48:11;101306.47;;;25.06;37.01
79589;BME280;69067;51.930;4.492;2024-02-21T10:53:54;101302.03;;;24.99;36.99
79589;BME280;69067;51.930;4.492;2024-02-21T10:56:32;101291.16;;;25.05;36.56
79589;BME280;69067;51.930;4.492;2024-02-21T10:59:03;101295.09;;;24.90;36.57
79589;BME280;69067;51.930;4.492;2024-02-21T11:01:31;101287.16;;;24.95;37.28
79589;BME280;69067;51.930;4.492;2024-02-21T11:04:01;101258.63;;;24.91;37.29
79589;BME280;69067;51.930;4.492;2024-02-21T11:06:30;101258.19;;;24.87;37.01
79589;BME280;69067;51.930;4.492;2024-02-21T11:09:03;101251.75;;;25.01;37.13
79589;BME280;69067;51.930;4.492;2024-02-21T11:11:45;101257.41;;;25.00;37.00
79589;BME280;69067;51.930;4.492;2024-02-21T11:14:18;101251.75;;;24.95;36.99
79589;BME280;69067;51.930;4.492;2024-02-21T11:16:45;101250.66;;;24.89;37.56
79589;BME280;69067;51.930;4.492;2024-02-21T11:19:28;101238.13;;;24.95;37.47
79589;BME280;69067;51.930;4.492;2024-02-21T11:21:56;101228.03;;;24.89;37.72
79589;BME280;69067;51.930;4.492;2024-02-21T11:26:52;101207.13;;;24.96;37.73
79589;BME280;69067;51.930;4.492;2024-02-21T11:29:23;101197.88;;;24.97;37.60
79589;BME280;69067;51.930;4.492;2024-02-21T11:31:54;101199.97;;;24.95;37.36
79589;BME280;69067;51.930;4.492;2024-02-21T11:34:20;101186.97;;;24.97;37.65
79589;BME280;69067;51.930;4.492;2024-02-21T11:36:51;101187.41;;;24.94;37.14
79589;BME280;69067;51.930;4.492;2024-02-21T11:39:19;101172.09;;;24.93;37.45
79589;BME280;69067;51.930;4.492;2024-02-21T11:42:05;101174.63;;;25.01;37.97
79589;BME280;69067;51.930;4.492;2024-02-21T11:44:36;101166.25;;;25.02;38.28
79589;BME280;69067;51.930;4.492;2024-02-21T11:47:04;101174.41;;;24.96;38.80
79589;BME280;69067;51.930;4.492;2024-02-21T11:49:30;101163.09;;;24.99;39.16
79589;BME280;69067;51.930;4.492;2024-02-21T11:52:00;101158.88;;;24.96;39.63
79589;BME280;69067;51.930;4.492;2024-02-21T11:54:30;101158.69;;;24.98;41.46
79589;BME280;69067;51.930;4.492;2024-02-21T11:56:56;101142.78;;;24.95;42.57
79589;BME280;69067;51.930;4.492;2024-02-21T11:59:21;101133.56;;;24.96;42.91
79589;BME280;69067;51.930;4.492;2024-02-21T12:01:49;101119.50;;;24.99;43.72
79589;BME280;69067;51.930;4.492;2024-02-21T12:04:15;101125.38;;;25.02;44.30
79589;BME280;69067;51.930;4.492;2024-02-21T12:06:52;101107.34;;;25.01;44.75
79589;BME280;69067;51.930;4.492;2024-02-21T12:09:19;101093.09;;;24.99;44.94
79589;BME280;69067;51.930;4.492;2024-02-21T12:11:47;101075.50;;;25.02;45.25
79589;BME280;69067;51.930;4.492;2024-02-21T12:14:24;101083.44;;;25.03;44.56
79589;BME280;69067;51.930;4.492;2024-02-21T12:16:50;101074.00;;;25.06;44.87
79589;BME280;69067;51.930;4.492;2024-02-21T12:19:17;101064.16;;;25.05;44.65
79589;BME280;69067;51.930;4.492;2024-02-21T12:21:43;101052.00;;;25.07;44.41
79589;BME280;69067;51.930;4.492;2024-02-21T12:24:15;101045.06;;;25.05;44.82
79589;BME280;69067;51.930;4.492;2024-02-21T12:26:42;101027.47;;;25.07;44.54
79589;BME280;69067;51.930;4.492;2024-02-21T12:29:08;101026.44;;;25.08;43.87
79589;BME280;69067;51.930;4.492;2024-02-21T12:31:39;101011.09;;;25.14;44.46
79589;BME280;69067;51.930;4.492;2024-02-21T12:34:05;101009.88;;;25.10;44.10
79589;BME280;69067;51.930;4.492;2024-02-21T12:36:40;101001.69;;;25.10;44.12
79589;BME280;69067;51.930;4.492;2024-02-21T12:39:07;100991.41;;;25.12;44.26
79589;BME280;69067;51.930;4.492;2024-02-21T12:41:34;100988.66;;;25.12;43.85
79589;BME280;69067;51.930;4.492;2024-02-21T12:44:02;100994.31;;;25.24;44.40
79589;BME280;69067;51.930;4.492;2024-02-21T12:46:29;100990.97;;;25.15;43.99
79589;BME280;69067;51.930;4.492;2024-02-21T12:48:54;100980.28;;;25.14;44.17
79589;BME280;69067;51.930;4.492;2024-02-21T12:51:20;100983.03;;;25.07;44.06
79589;BME280;69067;51.930;4.492;2024-02-21T12:53:47;100979.91;;;24.97;44.03
79589;BME280;69067;51.930;4.492;2024-02-21T12:56:15;100970.06;;;25.02;43.79
79589;BME280;69067;51.930;4.492;2024-02-21T12:58:42;100985.31;;;25.17;43.23
79589;BME280;69067;51.930;4.492;2024-02-21T13:01:08;100962.72;;;25.03;43.03